createdAt,value
2018-04-13T00:01:23.853Z,21.23
2018-04-13T00:03:51.390Z,15.73
2018-04-13T00:06:18.908Z,23.50
2018-04-13T00:08:46.587Z,17.20
2018-04-13T00:11:14.196Z,16.23
2018-04-13T00:13:41.956Z,19.63
2018-04-13T00:16:09.528Z,14.80
2018-04-13T00:18:37.064Z,23.60
2018-04-13T00:21:04.588Z,18.03
2018-04-13T00:23:32.089Z,20.70
2018-04-13T00:25:59.617Z,20.90
2018-04-13T00:28:27.142Z,22.50
2018-04-13T00:30:54.638Z,19.80
2018-04-13T00:33:22.159Z,15.67
2018-04-13T00:35:49.661Z,17.13
2018-04-13T00:38:17.190Z,19.77
2018-04-13T00:40:45.486Z,23.20
2018-04-13T00:43:13.005Z,16.87
2018-04-13T00:45:40.551Z,19.73
2018-04-13T00:48:08.191Z,16.33
2018-04-13T00:50:35.727Z,18.30
2018-04-13T00:56:04.585Z,20.40
2018-04-13T00:58:32.102Z,18.57
2018-04-13T01:00:59.755Z,17.53
2018-04-13T01:03:27.339Z,16.30
2018-04-13T01:05:54.867Z,17.80
2018-04-13T01:08:23.174Z,17.63
2018-04-13T01:27:17.689Z,20.30
2018-04-13T01:29:45.259Z,26.03
2018-04-13T01:32:12.806Z,18.10
2018-04-13T01:34:41.102Z,28.03
2018-04-13T01:37:09.462Z,25.10
2018-04-13T01:39:36.995Z,37.43
2018-04-13T01:42:04.578Z,21.63
2018-04-13T01:44:32.150Z,28.90
2018-04-13T01:46:59.749Z,19.40
2018-04-13T01:49:27.253Z,18.60
2018-04-13T01:51:54.803Z,21.40
2018-04-13T01:54:22.351Z,21.90
2018-04-13T01:56:49.898Z,20.43
2018-04-13T01:59:17.490Z,20.03
2018-04-13T02:01:45.063Z,15.90
2018-04-13T02:04:12.655Z,21.40
2018-04-13T02:06:40.173Z,18.20
2018-04-13T02:09:07.709Z,16.33
2018-04-13T02:11:35.262Z,16.40
2018-04-13T02:14:02.798Z,19.83
2018-04-13T02:16:30.318Z,18.40
2018-04-13T02:18:57.834Z,20.07
2018-04-13T02:21:25.434Z,17.95
2018-04-13T02:23:53.019Z,18.03
2018-04-13T02:26:20.542Z,18.40
2018-04-13T02:28:48.854Z,21.00
2018-04-13T02:31:16.426Z,19.65
2018-04-13T02:33:43.973Z,19.30
2018-04-13T02:36:11.509Z,22.63
2018-04-13T02:38:39.103Z,20.20
2018-04-13T02:41:06.649Z,22.20
2018-04-13T02:43:35.007Z,20.67
2018-04-13T02:46:02.608Z,21.80
2018-04-13T02:48:30.186Z,32.10
2018-04-13T02:50:57.739Z,24.13
2018-04-13T02:53:25.266Z,25.00
2018-04-13T02:55:52.871Z,27.67
2018-04-13T02:58:20.427Z,26.40
2018-04-13T03:00:47.941Z,25.80
2018-04-13T03:03:15.490Z,24.70
2018-04-13T03:05:43.015Z,27.80
2018-04-13T03:08:11.003Z,24.00
2018-04-13T03:10:38.575Z,25.50
2018-04-13T03:13:06.136Z,22.23
2018-04-13T03:15:34.095Z,25.07
2018-04-13T03:18:02.447Z,24.03
2018-04-13T03:20:29.989Z,25.93
2018-04-13T03:22:57.519Z,31.97
2018-04-13T03:25:25.139Z,24.90
2018-04-13T03:27:52.703Z,22.43
2018-04-13T03:30:20.300Z,27.20
2018-04-13T03:32:47.883Z,27.37
2018-04-13T03:35:15.407Z,25.63
2018-04-13T03:37:43.002Z,25.97
2018-04-13T03:40:10.535Z,25.03
2018-04-13T03:42:38.876Z,28.77
2018-04-13T03:45:06.474Z,22.33
2018-04-13T03:47:34.080Z,28.03
2018-04-13T03:50:01.669Z,30.57
2018-04-13T03:52:29.203Z,24.87
2018-04-13T03:54:56.735Z,29.17
2018-04-13T03:57:24.255Z,22.80
2018-04-13T03:59:52.627Z,28.27
2018-04-13T04:02:20.159Z,25.23
2018-04-13T04:04:47.808Z,21.07
2018-04-13T04:07:15.344Z,32.10
2018-04-13T04:09:42.923Z,18.80
2018-04-13T04:12:11.319Z,24.10
2018-04-13T04:14:38.898Z,24.67
2018-04-13T04:17:06.475Z,23.80
2018-04-13T04:19:45.840Z,28.10
2018-04-13T04:22:25.018Z,19.80
2018-04-13T04:27:58.468Z,21.07
2018-04-13T04:30:26.019Z,22.60
2018-04-13T04:32:53.574Z,28.57
2018-04-13T04:35:21.124Z,28.30
2018-04-13T04:37:48.686Z,26.07
2018-04-13T04:40:16.252Z,27.77
2018-04-13T04:42:43.760Z,30.03
2018-04-13T04:45:13.370Z,28.70
2018-04-13T04:47:40.902Z,31.73
2018-04-13T04:50:09.219Z,27.73
2018-04-13T04:52:36.722Z,24.13
2018-04-13T04:55:04.233Z,24.90
2018-04-13T04:57:31.770Z,21.73
2018-04-13T04:59:59.284Z,23.60
2018-04-13T05:02:26.801Z,23.77
2018-04-13T05:04:55.061Z,23.17
2018-04-13T05:07:23.662Z,22.77
2018-04-13T05:09:51.931Z,23.90
2018-04-13T05:12:20.190Z,22.80
2018-04-13T05:14:47.702Z,23.10
2018-04-13T05:17:15.202Z,29.83
2018-04-13T05:19:42.719Z,25.73
2018-04-13T05:22:10.207Z,24.93
2018-04-13T05:24:37.730Z,25.37
2018-04-13T05:27:05.228Z,25.30
2018-04-13T05:29:32.831Z,28.60
2018-04-13T05:32:00.369Z,27.47
2018-04-13T05:34:27.864Z,25.30
2018-04-13T05:36:55.421Z,26.80
2018-04-13T05:39:22.927Z,29.23
2018-04-13T05:41:50.465Z,30.80
2018-04-13T05:44:17.965Z,30.53
2018-04-13T05:46:45.482Z,28.33
2018-04-13T05:49:12.997Z,30.00
2018-04-13T05:51:43.877Z,29.93
2018-04-13T05:54:11.386Z,30.70
2018-04-13T05:56:38.877Z,32.60
2018-04-13T05:59:06.390Z,28.60
2018-04-13T06:01:33.897Z,29.10
2018-04-13T06:04:01.425Z,27.90
2018-04-13T06:06:29.725Z,30.10
2018-04-13T06:08:58.762Z,26.60
2018-04-13T06:11:26.281Z,30.77
2018-04-13T06:13:54.532Z,23.27
2018-04-13T06:16:22.041Z,29.67
2018-04-13T06:18:49.601Z,32.93
2018-04-13T06:21:17.837Z,26.20
2018-04-13T06:23:45.353Z,28.57
2018-04-13T06:26:12.966Z,29.90
2018-04-13T06:28:40.656Z,27.80
2018-04-13T06:31:08.331Z,31.40
2018-04-13T06:33:36.069Z,28.97
2018-04-13T06:36:03.593Z,32.40
2018-04-13T06:38:31.093Z,23.60
2018-04-13T06:40:58.855Z,28.80
2018-04-13T06:43:26.358Z,24.90
2018-04-13T06:45:53.884Z,25.70
2018-04-13T06:48:21.392Z,27.90
2018-04-13T06:50:48.917Z,25.07
2018-04-13T06:53:16.424Z,25.00
2018-04-13T06:55:43.953Z,25.47
2018-04-13T06:58:11.467Z,24.73
2018-04-13T07:00:39.185Z,31.23
2018-04-13T07:03:06.701Z,24.17
2018-04-13T07:05:34.208Z,25.50
2018-04-13T07:08:01.722Z,28.70
2018-04-13T07:10:29.235Z,25.07
2018-04-13T07:12:56.749Z,30.03
2018-04-13T07:15:24.268Z,29.00
2018-04-13T07:17:52.558Z,24.80
2018-04-13T07:20:20.863Z,25.77
2018-04-13T07:22:48.397Z,23.57
2018-04-13T07:25:16.667Z,23.13
2018-04-13T07:27:44.980Z,23.00
2018-04-13T07:30:12.493Z,25.63
2018-04-13T07:32:40.003Z,29.47
2018-04-13T07:35:08.754Z,23.23
2018-04-13T07:37:35.804Z,25.67
2018-04-13T07:40:03.334Z,23.67
2018-04-13T07:42:31.658Z,29.20
2018-04-13T07:44:59.238Z,24.83
2018-04-13T07:47:27.462Z,22.53
2018-04-13T07:49:55.009Z,24.40
2018-04-13T07:52:22.532Z,26.37
2018-04-13T07:54:50.060Z,25.00
2018-04-13T07:57:18.347Z,30.37
2018-04-13T07:59:46.618Z,18.97
2018-04-13T08:02:14.925Z,20.17
2018-04-13T08:04:42.421Z,19.90
2018-04-13T08:07:09.971Z,22.27
2018-04-13T08:09:37.498Z,21.10
2018-04-13T08:12:04.996Z,20.43
2018-04-13T08:14:32.541Z,20.53
2018-04-13T08:17:00.085Z,19.63
2018-04-13T08:19:27.607Z,22.60
2018-04-13T08:21:55.874Z,23.60
2018-04-13T08:24:23.383Z,17.97
2018-04-13T08:26:50.906Z,21.17
2018-04-13T08:29:19.178Z,24.97
2018-04-13T08:31:46.712Z,20.40
2018-04-13T08:34:14.223Z,26.00
2018-04-13T08:36:42.734Z,20.80
2018-04-13T08:39:10.243Z,20.77
2018-04-13T08:41:38.531Z,22.33
2018-04-13T08:44:06.802Z,22.77
2018-04-13T08:46:35.081Z,21.87
2018-04-13T08:49:03.571Z,22.23
2018-04-13T08:51:30.891Z,18.67
2018-04-13T08:53:58.408Z,20.73
2018-04-13T08:56:25.906Z,18.20
2018-04-13T08:58:53.436Z,21.63
2018-04-13T09:01:20.935Z,18.13
2018-04-13T09:03:48.424Z,19.90
2018-04-13T09:06:15.970Z,19.53
2018-04-13T09:08:44.256Z,19.53
2018-04-13T09:11:12.547Z,20.83
2018-04-13T09:13:40.054Z,18.67
2018-04-13T09:16:07.589Z,16.60
2018-04-13T09:18:35.105Z,18.97
2018-04-13T09:21:03.711Z,18.50
2018-04-13T09:23:31.244Z,13.70
2018-04-13T09:25:59.558Z,13.47
2018-04-13T09:28:27.120Z,19.93
2018-04-13T09:30:54.629Z,12.17
2018-04-13T09:33:22.171Z,15.30
2018-04-13T09:35:49.910Z,7.10
2018-04-13T09:38:17.390Z,6.00
2018-04-13T09:40:44.905Z,8.57
2018-04-13T09:43:13.171Z,7.60
2018-04-13T09:45:41.456Z,5.00
2018-04-13T09:48:09.721Z,4.87
2018-04-13T09:50:37.257Z,4.13
2018-04-13T09:53:04.763Z,9.17
2018-04-13T09:55:33.038Z,5.33
2018-04-13T09:58:00.558Z,3.40
2018-04-13T10:00:29.991Z,3.23
2018-04-13T10:03:03.388Z,6.37
2018-04-13T10:05:31.652Z,3.50
2018-04-13T10:07:59.174Z,4.57
2018-04-13T10:10:26.702Z,5.13
2018-04-13T10:12:54.223Z,5.77
2018-04-13T10:15:21.766Z,4.70
2018-04-13T10:17:49.302Z,8.47
2018-04-13T10:20:16.800Z,5.93
2018-04-13T10:22:44.298Z,5.60
2018-04-13T10:25:12.038Z,7.07
2018-04-13T10:27:40.318Z,6.70
2018-04-13T10:30:08.823Z,7.60
2018-04-13T10:32:36.318Z,6.97
2018-04-13T10:35:03.846Z,9.10
2018-04-13T10:37:31.350Z,6.53
2018-04-13T10:39:58.907Z,6.10
2018-04-13T10:42:26.421Z,8.50
2018-04-13T10:44:53.934Z,7.43
2018-04-13T10:47:21.451Z,10.23
2018-04-13T10:49:48.979Z,10.13
2018-04-13T10:52:17.278Z,8.27
2018-04-13T10:54:44.819Z,8.90
2018-04-13T10:57:13.327Z,7.00
2018-04-13T10:59:40.822Z,8.00
2018-04-13T11:02:08.348Z,10.70
2018-04-13T11:04:35.845Z,10.40
2018-04-13T11:07:03.331Z,10.73
2018-04-13T11:09:31.612Z,11.03
2018-04-13T11:11:59.866Z,10.73
2018-04-13T11:14:27.390Z,11.50
2018-04-13T11:16:54.931Z,11.87
2018-04-13T11:19:22.406Z,13.43
2018-04-13T11:21:49.898Z,9.90
2018-04-13T11:24:17.516Z,14.55
2018-04-13T11:26:45.802Z,10.93
2018-04-13T11:29:13.322Z,10.70
2018-04-13T11:31:40.875Z,7.73
2018-04-13T11:34:08.377Z,11.63
2018-04-13T11:36:36.509Z,12.17
2018-04-13T11:39:04.795Z,11.10
2018-04-13T11:41:33.115Z,10.73
2018-04-13T11:44:00.602Z,9.17
2018-04-13T11:46:28.154Z,10.30
2018-04-13T11:48:55.655Z,10.27
2018-04-13T11:51:23.924Z,10.27
2018-04-13T11:53:52.284Z,7.28
2018-04-13T11:56:19.968Z,8.15
2018-04-13T11:58:48.367Z,10.07
2018-04-13T12:01:15.861Z,8.82
2018-04-13T12:03:43.375Z,8.20
2018-04-13T12:06:10.903Z,8.30
2018-04-13T12:08:38.452Z,12.53
2018-04-13T12:11:05.947Z,6.73
2018-04-13T12:13:34.220Z,7.23
2018-04-13T12:16:01.751Z,9.17
2018-04-13T12:18:29.257Z,8.23
2018-04-13T12:20:57.753Z,8.73
2018-04-13T12:23:25.247Z,6.60
2018-04-13T12:25:52.791Z,8.50
2018-04-13T12:28:20.299Z,10.10
2018-04-13T12:30:47.827Z,8.67
2018-04-13T12:33:15.325Z,8.17
2018-04-13T12:35:42.828Z,7.67
2018-04-13T12:38:10.357Z,7.03
2018-04-13T12:40:38.635Z,12.93
2018-04-13T12:43:06.928Z,9.83
2018-04-13T12:45:34.410Z,8.63
2018-04-13T12:48:01.941Z,6.83
2018-04-13T12:50:29.495Z,6.37
2018-04-13T12:52:57.784Z,7.07
2018-04-13T12:55:25.328Z,10.90
2018-04-13T12:57:52.811Z,8.50
2018-04-13T13:00:20.322Z,8.47
2018-04-13T13:02:47.823Z,5.80
2018-04-13T13:05:15.338Z,6.87
2018-04-13T13:07:42.895Z,6.70
2018-04-13T13:10:10.406Z,8.50
2018-04-13T13:12:37.930Z,8.50
2018-04-13T13:15:05.441Z,4.90
2018-04-13T13:17:32.943Z,6.43
2018-04-13T13:20:00.457Z,5.67
2018-04-13T13:22:27.969Z,6.30
2018-04-13T13:24:56.283Z,4.43
2018-04-13T13:27:24.034Z,4.70
2018-04-13T13:29:51.529Z,5.10
2018-04-13T13:32:19.054Z,6.73
2018-04-13T13:34:46.568Z,5.23
2018-04-13T13:37:14.087Z,6.63
2018-04-13T13:39:41.585Z,5.50
2018-04-13T13:42:09.079Z,4.27
2018-04-13T13:44:37.370Z,4.80
2018-04-13T13:47:04.870Z,5.10
2018-04-13T13:49:32.404Z,4.67
2018-04-13T13:51:59.910Z,5.60
2018-04-13T13:54:27.434Z,5.63
2018-04-13T13:56:54.923Z,4.60
2018-04-13T13:59:22.447Z,5.47
2018-04-13T14:01:49.955Z,4.93
2018-04-13T14:04:17.455Z,5.07
2018-04-13T14:06:44.974Z,5.87
2018-04-13T14:09:12.474Z,6.37
2018-04-13T14:11:40.015Z,7.53
2018-04-13T14:14:08.291Z,8.60
2018-04-13T14:16:36.575Z,6.40
2018-04-13T14:19:04.074Z,9.37
2018-04-13T14:21:31.599Z,8.93
2018-04-13T14:23:59.089Z,9.10
2018-04-13T14:26:26.599Z,9.53
2018-04-13T14:28:54.122Z,9.90
2018-04-13T14:31:21.626Z,8.03
2018-04-13T14:33:49.906Z,7.80
2018-04-13T14:36:18.165Z,11.77
2018-04-13T14:38:46.486Z,8.10
2018-04-13T14:41:13.972Z,8.80
2018-04-13T14:43:41.491Z,8.83
2018-04-13T14:46:09.007Z,5.67
2018-04-13T14:48:37.187Z,10.83
2018-04-13T14:51:04.730Z,7.30
2018-04-13T14:53:32.229Z,5.90
2018-04-13T14:56:01.295Z,6.03
2018-04-13T14:58:28.855Z,5.43
2018-04-13T15:00:56.462Z,5.90
2018-04-13T15:03:23.956Z,5.53
2018-04-13T15:05:51.474Z,5.83
2018-04-13T15:08:20.941Z,5.70
2018-04-13T15:10:48.433Z,6.60
2018-04-13T15:13:16.729Z,5.80
2018-04-13T15:15:44.235Z,6.13
2018-04-13T15:18:11.772Z,6.37
2018-04-13T15:20:39.267Z,5.47
2018-04-13T15:23:06.799Z,5.90
2018-04-13T15:25:34.306Z,5.50
2018-04-13T15:28:01.825Z,7.57
2018-04-13T15:30:29.332Z,6.23
2018-04-13T15:32:56.829Z,5.00
2018-04-13T15:35:24.363Z,4.90
2018-04-13T15:37:51.891Z,5.13
2018-04-13T15:40:19.475Z,5.30
2018-04-13T15:42:47.001Z,5.57
2018-04-13T15:45:14.553Z,4.27
2018-04-13T15:47:42.072Z,5.07
2018-04-13T15:50:09.598Z,5.83
2018-04-13T15:52:37.911Z,3.87
2018-04-13T15:55:05.416Z,3.20
2018-04-13T15:57:32.946Z,2.50
2018-04-13T16:00:00.458Z,2.73
2018-04-13T16:02:28.743Z,3.30
2018-04-13T16:04:57.869Z,2.60
2018-04-13T16:07:25.376Z,6.60
2018-04-13T16:09:52.898Z,5.77
2018-04-13T16:12:20.419Z,2.77
2018-04-13T16:14:48.674Z,2.23
2018-04-13T16:17:16.179Z,6.33
2018-04-13T16:19:43.722Z,2.30
2018-04-13T16:22:11.222Z,2.93
2018-04-13T16:24:39.120Z,5.00
2018-04-13T16:27:07.493Z,3.43
2018-04-13T16:29:36.144Z,4.07
2018-04-13T16:32:03.896Z,5.97
2018-04-13T16:34:31.785Z,2.70
2018-04-13T16:36:59.581Z,3.10
2018-04-13T16:39:35.407Z,6.50
2018-04-13T16:42:02.970Z,1.83
2018-04-13T16:44:30.537Z,2.80
2018-04-13T16:46:58.231Z,4.10
2018-04-13T16:49:25.864Z,3.50
2018-04-13T16:51:53.522Z,1.87
2018-04-13T16:54:21.404Z,4.33
2018-04-13T16:56:50.027Z,4.77
2018-04-13T16:59:17.797Z,7.40
2018-04-13T17:01:45.576Z,5.20
2018-04-13T17:04:13.406Z,9.50
2018-04-13T17:06:42.434Z,9.13
2018-04-13T17:09:10.756Z,3.07
2018-04-13T17:11:38.467Z,4.37
2018-04-13T17:14:06.357Z,2.63
2018-04-13T17:16:34.079Z,3.10
2018-04-13T17:19:02.019Z,1.93
2018-04-13T17:21:29.879Z,5.17
2018-04-13T17:23:58.030Z,6.70
2018-04-13T17:26:25.680Z,3.33
2018-04-13T17:28:53.387Z,3.83
2018-04-13T17:31:21.088Z,2.73
2018-04-13T17:33:49.436Z,1.40
2018-04-13T17:36:17.323Z,4.33
2018-04-13T17:38:44.892Z,2.37
2018-04-13T17:41:13.232Z,3.50
2018-04-13T17:43:40.775Z,3.20
2018-04-13T17:46:08.375Z,4.80
2018-04-13T17:48:35.904Z,2.87
2018-04-13T17:51:03.543Z,9.00
2018-04-13T17:53:32.004Z,2.13
2018-04-13T17:55:59.537Z,2.23
2018-04-13T17:58:27.117Z,2.87
2018-04-13T18:00:54.654Z,4.97
2018-04-13T18:03:22.230Z,3.90
2018-04-13T18:05:50.531Z,3.00
2018-04-13T18:08:18.134Z,2.67
2018-04-13T18:10:45.790Z,3.97
2018-04-13T18:13:13.565Z,5.27
2018-04-13T18:15:41.161Z,6.93
2018-04-13T18:18:09.449Z,5.60
2018-04-13T18:20:37.945Z,2.63
2018-04-13T18:23:06.281Z,3.50
2018-04-13T18:25:36.404Z,7.23
2018-04-13T18:28:04.075Z,3.20
2018-04-13T18:30:31.691Z,5.03
2018-04-13T18:32:59.328Z,3.60
2018-04-13T18:35:29.847Z,4.90
2018-04-13T18:37:57.460Z,5.33
2018-04-13T18:40:25.089Z,6.07
2018-04-13T18:42:52.693Z,5.50
2018-04-13T18:45:20.519Z,5.00
2018-04-13T18:47:48.188Z,12.50
2018-04-13T18:50:15.822Z,4.27
2018-04-13T18:52:56.632Z,5.03
2018-04-13T18:55:24.525Z,5.33
2018-04-13T18:57:52.871Z,4.20
2018-04-13T19:00:20.696Z,4.43
2018-04-13T19:02:48.246Z,4.13
2018-04-13T19:05:15.876Z,5.47
2018-04-13T19:07:43.552Z,5.13
2018-04-13T19:10:11.078Z,5.03
2018-04-13T19:12:39.416Z,4.00
2018-04-13T19:15:07.331Z,5.07
2018-04-13T19:17:34.842Z,6.80
2018-04-13T19:20:02.391Z,4.20
2018-04-13T19:22:29.940Z,5.90
2018-04-13T19:24:57.443Z,4.67
2018-04-13T19:27:25.765Z,6.20
2018-04-13T19:29:53.270Z,4.80
2018-04-13T19:32:21.561Z,5.60
2018-04-13T19:34:49.818Z,4.43
2018-04-13T19:37:17.348Z,6.07
2018-04-13T19:39:44.847Z,5.47
2018-04-13T19:42:13.138Z,4.77
2018-04-13T19:44:41.414Z,8.70
2018-04-13T19:47:08.950Z,4.93
2018-04-13T19:49:37.256Z,6.00
2018-04-13T19:52:04.766Z,6.07
2018-04-13T19:54:32.299Z,5.37
2018-04-13T19:56:59.804Z,3.63
2018-04-13T19:59:27.316Z,7.22
2018-04-13T20:01:54.810Z,5.60
2018-04-13T20:04:22.313Z,5.37
2018-04-13T20:06:49.885Z,6.55
2018-04-13T20:09:18.362Z,6.30
2018-04-13T20:11:45.902Z,7.87
2018-04-13T20:14:26.962Z,5.40
2018-04-13T20:16:54.494Z,6.27
2018-04-13T20:19:21.999Z,3.40
2018-04-13T20:21:50.270Z,4.50
2018-04-13T20:24:17.777Z,5.97
2018-04-13T20:26:45.270Z,5.30
2018-04-13T20:29:13.771Z,5.75
2018-04-13T20:31:42.160Z,4.80
2018-04-13T20:34:09.695Z,6.90
2018-04-13T20:36:37.190Z,5.13
2018-04-13T20:39:06.691Z,6.40
2018-04-13T20:41:34.194Z,7.37
2018-04-13T20:44:01.716Z,7.00
2018-04-13T20:46:29.239Z,9.17
2018-04-13T20:48:56.759Z,8.35
2018-04-13T20:51:24.919Z,7.60
2018-04-13T20:53:52.638Z,5.80
2018-04-13T20:56:20.149Z,9.67
2018-04-13T20:58:47.675Z,7.85
2018-04-13T21:01:15.983Z,8.73
2018-04-13T21:03:43.473Z,6.20
2018-04-13T21:06:11.002Z,10.23
2018-04-13T21:08:38.519Z,6.43
2018-04-13T21:11:06.015Z,7.65
2018-04-13T21:13:33.543Z,6.80
2018-04-13T21:16:01.051Z,7.60
2018-04-13T21:18:28.584Z,6.87
2018-04-13T21:20:56.091Z,7.32
2018-04-13T21:23:23.614Z,7.45
2018-04-13T21:25:51.123Z,7.53
2018-04-13T21:28:18.636Z,8.50
2018-04-13T21:30:46.154Z,7.72
2018-04-13T21:33:13.642Z,8.32
2018-04-13T21:35:41.930Z,10.13
2018-04-13T21:38:09.447Z,7.22
2018-04-13T21:40:36.975Z,9.23
2018-04-13T21:43:04.482Z,7.18
2018-04-13T21:45:32.773Z,9.73
2018-04-13T21:48:01.045Z,7.50
2018-04-13T21:50:29.324Z,8.27
2018-04-13T21:52:57.599Z,7.60
2018-04-13T21:55:25.877Z,8.93
2018-04-13T21:57:53.633Z,8.25
2018-04-13T22:00:21.911Z,9.57
2018-04-13T22:02:50.199Z,9.18
2018-04-13T22:05:18.462Z,9.80
2018-04-13T22:07:46.018Z,8.10
2018-04-13T22:10:14.295Z,8.57
2018-04-13T22:15:46.468Z,9.50
2018-04-13T22:18:14.008Z,10.68
2018-04-13T22:20:41.727Z,9.60
2018-04-13T22:23:09.336Z,6.93
2018-04-13T22:25:36.928Z,8.07
2018-04-13T22:28:04.486Z,8.93
2018-04-13T22:30:32.025Z,7.05
2018-04-13T22:33:00.295Z,6.62
2018-04-13T22:35:27.825Z,7.28
2018-04-13T22:37:55.358Z,6.40
2018-04-13T22:40:22.846Z,6.20
2018-04-13T22:42:51.122Z,6.10
2018-04-13T22:45:18.638Z,6.17
2018-04-13T22:47:46.138Z,7.50
2018-04-13T22:50:13.774Z,5.40
2018-04-13T22:52:41.255Z,7.33
2018-04-13T22:55:08.773Z,6.13
2018-04-13T22:57:37.038Z,6.50
2018-04-13T23:00:04.682Z,6.43
2018-04-13T23:02:32.241Z,8.27
2018-04-13T23:04:59.771Z,7.00
2018-04-13T23:07:28.092Z,5.57
2018-04-13T23:09:55.607Z,5.47
2018-04-13T23:12:23.126Z,8.60
2018-04-13T23:14:50.717Z,8.33
2018-04-13T23:17:18.236Z,7.40
2018-04-13T23:19:45.773Z,7.93
2018-04-13T23:25:17.134Z,5.85
2018-04-13T23:27:44.645Z,7.05
2018-04-13T23:30:12.164Z,5.75
2018-04-13T23:32:39.684Z,5.50
2018-04-13T23:35:07.983Z,4.72
2018-04-13T23:37:35.496Z,4.32
2018-04-13T23:40:03.004Z,4.22
2018-04-13T23:42:30.528Z,6.30
2018-04-13T23:44:58.042Z,3.78
2018-04-13T23:47:25.566Z,5.65
2018-04-13T23:49:53.823Z,5.18
2018-04-13T23:52:21.329Z,3.93
2018-04-13T23:54:48.829Z,4.85
2018-04-13T23:57:16.346Z,4.20
2018-04-13T23:59:43.844Z,4.80
